createdAt,value
2019-05-03T00:02:33.256Z,99.90
2019-05-03T00:05:21.994Z,99.90
2019-05-03T00:07:54.042Z,99.70
2019-05-03T00:10:23.842Z,99.40
2019-05-03T00:12:54.003Z,99.50
2019-05-03T00:15:39.518Z,99.70
2019-05-03T00:18:09.211Z,99.70
2019-05-03T00:20:38.908Z,99.30
2019-05-03T00:23:08.683Z,99.70
2019-05-03T00:25:38.412Z,99.80
2019-05-03T00:28:08.043Z,99.50
2019-05-03T00:30:38.023Z,99.80
2019-05-03T00:33:07.780Z,99.90
2019-05-03T00:35:58.023Z,99.90
2019-05-03T00:38:27.710Z,99.90
2019-05-03T00:40:57.451Z,99.90
2019-05-03T00:43:27.098Z,99.90
2019-05-03T00:45:56.965Z,99.90
2019-05-03T00:48:26.654Z,99.90
2019-05-03T00:50:56.350Z,99.90
2019-05-03T00:53:26.796Z,99.90
2019-05-03T00:55:56.832Z,99.90
2019-05-03T00:58:26.538Z,99.90
2019-05-03T01:00:56.344Z,99.90
2019-05-03T01:03:26.383Z,99.90
2019-05-03T01:05:56.048Z,99.90
2019-05-03T01:08:25.924Z,99.90
2019-05-03T01:10:55.549Z,99.90
2019-05-03T01:13:25.443Z,99.90
2019-05-03T01:16:06.233Z,99.90
2019-05-03T01:18:36.335Z,99.90
2019-05-03T01:21:06.290Z,99.90
2019-05-03T01:23:36.036Z,99.90
2019-05-03T01:26:05.806Z,99.90
2019-05-03T01:28:35.639Z,99.90
2019-05-03T01:31:05.329Z,99.90
2019-05-03T01:33:34.955Z,99.90
2019-05-03T01:36:04.953Z,99.90
2019-05-03T01:38:34.666Z,99.90
2019-05-03T01:41:04.347Z,99.90
2019-05-03T01:43:34.109Z,99.90
2019-05-03T01:46:03.993Z,99.90
2019-05-03T01:49:07.576Z,99.90
2019-05-03T01:52:05.047Z,99.90
2019-05-03T01:54:34.732Z,99.90
2019-05-03T01:57:04.783Z,99.90
2019-05-03T01:59:34.536Z,99.90
2019-05-03T02:02:27.457Z,99.90
2019-05-03T02:05:25.167Z,99.90
2019-05-03T02:07:54.764Z,99.90
2019-05-03T02:10:25.200Z,99.90
2019-05-03T02:12:54.840Z,99.90
2019-05-03T02:15:24.598Z,99.90
2019-05-03T02:17:54.352Z,99.90
2019-05-03T02:20:24.090Z,99.90
2019-05-03T02:22:53.796Z,99.90
2019-05-03T02:25:23.588Z,99.90
2019-05-03T02:27:53.469Z,99.90
2019-05-03T02:30:24.919Z,99.90
2019-05-03T02:32:54.516Z,99.90
2019-05-03T02:35:24.373Z,99.90
2019-05-03T02:37:54.705Z,99.90
2019-05-03T02:40:25.071Z,99.90
2019-05-03T02:43:11.435Z,99.90
2019-05-03T02:45:51.148Z,99.90
2019-05-03T02:48:28.206Z,99.90
2019-05-03T02:50:57.848Z,99.90
2019-05-03T02:53:27.490Z,99.90
2019-05-03T02:56:13.035Z,99.90
2019-05-03T02:58:28.648Z,99.90
2019-05-03T03:01:00.487Z,99.90
2019-05-03T03:03:31.190Z,99.90
2019-05-03T03:06:06.373Z,99.90
2019-05-03T03:08:36.901Z,99.90
2019-05-03T03:11:07.660Z,99.90
2019-05-03T03:13:39.648Z,99.90
2019-05-03T03:16:10.331Z,99.90
2019-05-03T03:18:41.285Z,99.90
2019-05-03T03:21:16.421Z,99.90
2019-05-03T03:24:17.080Z,99.90
2019-05-03T03:26:50.605Z,99.90
2019-05-03T03:29:25.364Z,99.90
2019-05-03T03:32:18.784Z,99.90
2019-05-03T03:35:03.182Z,99.90
2019-05-03T03:37:30.383Z,99.90
2019-05-03T03:40:00.168Z,99.90
2019-05-03T03:42:31.295Z,99.90
2019-05-03T03:45:05.799Z,99.90
2019-05-03T03:47:38.648Z,99.90
2019-05-03T03:50:08.628Z,99.90
2019-05-03T03:52:40.645Z,99.90
2019-05-03T03:55:11.119Z,99.90
2019-05-03T03:57:42.096Z,99.90
2019-05-03T04:00:11.848Z,99.90
2019-05-03T04:02:41.592Z,99.90
2019-05-03T04:05:11.987Z,99.90
2019-05-03T04:07:41.882Z,99.90
2019-05-03T04:10:12.030Z,99.90
2019-05-03T04:12:45.478Z,99.90
2019-05-03T04:15:26.277Z,99.90
2019-05-03T04:18:12.245Z,99.90
2019-05-03T04:20:42.167Z,99.90
2019-05-03T04:23:11.935Z,99.90
2019-05-03T04:25:41.739Z,99.90
2019-05-03T04:28:11.795Z,99.90
2019-05-03T04:30:41.717Z,99.90
2019-05-03T04:33:11.322Z,99.90
2019-05-03T04:35:41.122Z,99.90
2019-05-03T04:38:10.845Z,99.90
2019-05-03T04:40:40.495Z,99.90
2019-05-03T04:43:10.117Z,99.90
2019-05-03T04:45:39.887Z,99.90
2019-05-03T04:48:09.800Z,99.90
2019-05-03T04:50:39.530Z,99.90
2019-05-03T04:53:09.312Z,99.90
2019-05-03T04:55:39.310Z,99.90
2019-05-03T04:58:09.152Z,99.90
2019-05-03T05:00:39.020Z,99.90
2019-05-03T05:03:09.242Z,99.90
2019-05-03T05:05:38.761Z,99.90
2019-05-03T05:08:08.459Z,99.90
2019-05-03T05:10:38.178Z,99.90
2019-05-03T05:13:07.911Z,99.90
2019-05-03T05:15:37.693Z,99.90
2019-05-03T05:18:26.512Z,99.90
2019-05-03T05:21:04.627Z,99.90
2019-05-03T05:23:35.345Z,99.90
2019-05-03T05:26:14.469Z,99.90
2019-05-03T05:28:51.947Z,99.90
2019-05-03T05:31:22.100Z,99.90
2019-05-03T05:33:51.846Z,99.90
2019-05-03T05:36:21.595Z,99.90
2019-05-03T05:38:51.271Z,99.90
2019-05-03T05:41:20.934Z,99.90
2019-05-03T05:43:50.671Z,99.90
2019-05-03T05:46:22.168Z,99.90
2019-05-03T05:48:52.494Z,99.90
2019-05-03T05:51:22.196Z,99.90
2019-05-03T05:53:51.942Z,99.90
2019-05-03T05:56:37.118Z,99.90
2019-05-03T05:59:14.878Z,99.90
2019-05-03T06:02:06.435Z,99.90
2019-05-03T06:04:36.678Z,99.90
2019-05-03T06:07:24.822Z,99.90
2019-05-03T06:10:14.730Z,99.90
2019-05-03T06:12:49.732Z,99.90
2019-05-03T06:15:36.548Z,99.90
2019-05-03T06:18:11.255Z,99.90
2019-05-03T06:20:59.886Z,99.90
2019-05-03T06:23:45.051Z,99.90
2019-05-03T06:26:36.736Z,99.90
2019-05-03T06:29:06.847Z,99.90
2019-05-03T06:31:45.613Z,99.90
2019-05-03T06:34:15.328Z,99.90
2019-05-03T06:36:46.675Z,99.90
2019-05-03T06:39:16.336Z,99.90
2019-05-03T06:41:46.475Z,99.90
2019-05-03T06:44:19.142Z,99.90
2019-05-03T06:46:48.539Z,99.90
2019-05-03T06:49:18.638Z,99.90
2019-05-03T06:51:49.829Z,99.90
2019-05-03T06:54:20.676Z,99.90
2019-05-03T06:56:50.939Z,99.90
2019-05-03T06:59:35.882Z,99.90
2019-05-03T07:02:16.734Z,99.90
2019-05-03T07:04:48.155Z,99.90
2019-05-03T07:07:45.800Z,99.90
2019-05-03T07:10:27.684Z,99.90
2019-05-03T07:13:01.713Z,99.90
2019-05-03T07:15:31.318Z,99.90
2019-05-03T07:18:01.163Z,99.90
2019-05-03T07:20:35.225Z,99.90
2019-05-03T07:23:04.475Z,99.90
2019-05-03T07:25:34.456Z,99.90
2019-05-03T07:28:04.470Z,99.90
2019-05-03T07:30:35.237Z,99.90
2019-05-03T07:33:10.158Z,99.90
2019-05-03T07:35:39.844Z,99.90
2019-05-03T07:38:10.114Z,99.90
2019-05-03T07:40:39.803Z,99.90
2019-05-03T07:43:09.589Z,99.90
2019-05-03T07:45:39.467Z,99.90
2019-05-03T07:48:09.186Z,99.90
2019-05-03T07:50:38.955Z,99.90
2019-05-03T07:53:08.594Z,99.90
2019-05-03T07:56:08.995Z,99.90
2019-05-03T07:58:39.180Z,99.90
2019-05-03T08:01:14.922Z,99.90
2019-05-03T08:03:45.249Z,99.90
2019-05-03T08:06:15.091Z,99.90
2019-05-03T08:08:45.485Z,99.90
2019-05-03T08:11:15.889Z,99.90
2019-05-03T08:13:45.425Z,99.90
2019-05-03T08:16:16.044Z,99.90
2019-05-03T08:18:45.867Z,99.90
2019-05-03T08:21:15.885Z,99.80
2019-05-03T08:23:45.528Z,99.90
2019-05-03T08:26:15.466Z,99.90
2019-05-03T08:28:45.111Z,99.90
2019-05-03T08:31:32.265Z,99.90
2019-05-03T08:34:35.708Z,99.00
2019-05-03T08:37:09.799Z,98.40
2019-05-03T08:39:39.436Z,98.00
2019-05-03T08:42:14.992Z,97.50
2019-05-03T08:44:45.335Z,97.50
2019-05-03T08:47:15.538Z,97.30
2019-05-03T08:49:45.329Z,96.90
2019-05-03T08:52:15.706Z,96.90
2019-05-03T08:54:48.982Z,96.80
2019-05-03T08:57:18.688Z,95.90
2019-05-03T08:59:48.394Z,95.70
2019-05-03T09:02:18.397Z,94.90
2019-05-03T09:04:48.289Z,94.80
2019-05-03T09:07:18.031Z,94.80
2019-05-03T09:10:05.526Z,94.60
2019-05-03T09:12:53.025Z,94.80
2019-05-03T09:15:24.536Z,94.50
2019-05-03T09:17:55.256Z,95.00
2019-05-03T09:20:25.161Z,95.20
2019-05-03T09:22:55.020Z,95.30
2019-05-03T09:25:24.874Z,95.90
2019-05-03T09:27:55.234Z,95.90
2019-05-03T09:30:25.218Z,96.80
2019-05-03T09:32:55.712Z,96.70
2019-05-03T09:35:32.604Z,96.90
2019-05-03T09:37:56.829Z,97.40
2019-05-03T09:40:26.489Z,97.90
2019-05-03T09:42:56.175Z,98.00
2019-05-03T09:45:25.941Z,98.00
2019-05-03T09:47:55.634Z,98.10
2019-05-03T09:50:25.268Z,98.50
2019-05-03T09:52:55.539Z,98.50
2019-05-03T09:55:39.999Z,98.40
2019-05-03T09:58:09.631Z,98.60
2019-05-03T10:00:39.374Z,98.30
2019-05-03T10:03:08.976Z,98.60
2019-05-03T10:05:38.616Z,98.20
2019-05-03T10:08:08.247Z,98.30
2019-05-03T10:10:55.379Z,98.10
2019-05-03T10:13:27.079Z,98.10
2019-05-03T10:15:56.342Z,98.50
2019-05-03T10:18:26.075Z,98.40
2019-05-03T10:20:56.254Z,97.90
2019-05-03T10:23:39.143Z,97.40
2019-05-03T10:26:08.988Z,97.00
2019-05-03T10:28:38.689Z,97.10
2019-05-03T10:31:08.501Z,97.30
2019-05-03T10:33:51.647Z,97.50
2019-05-03T10:36:21.248Z,97.70
2019-05-03T10:38:51.054Z,97.70
2019-05-03T10:41:20.761Z,97.50
2019-05-03T10:43:50.570Z,97.20
2019-05-03T10:46:20.591Z,96.80
2019-05-03T10:48:50.238Z,96.80
2019-05-03T10:51:20.095Z,96.30
2019-05-03T10:53:55.095Z,96.30
2019-05-03T10:56:49.576Z,96.80
2019-05-03T10:59:20.447Z,96.70
2019-05-03T11:02:12.237Z,97.40
2019-05-03T11:04:43.684Z,96.20
2019-05-03T11:07:14.885Z,96.20
2019-05-03T11:09:49.606Z,96.70
2019-05-03T11:12:16.263Z,95.90
2019-05-03T11:14:46.115Z,95.60
2019-05-03T11:17:16.048Z,95.20
2019-05-03T11:19:45.621Z,94.80
2019-05-03T11:22:15.637Z,94.00
2019-05-03T11:24:45.542Z,93.40
2019-05-03T11:27:20.042Z,93.00
2019-05-03T11:29:49.673Z,92.40
2019-05-03T11:32:35.254Z,91.70
2019-05-03T11:35:16.162Z,92.30
2019-05-03T11:37:55.767Z,92.30
2019-05-03T11:40:25.516Z,92.10
2019-05-03T11:42:57.130Z,91.90
2019-05-03T11:45:26.853Z,91.80
2019-05-03T11:47:56.487Z,90.60
2019-05-03T11:50:26.235Z,91.10
2019-05-03T11:52:55.905Z,89.60
2019-05-03T11:55:26.789Z,90.50
2019-05-03T11:57:56.774Z,90.60
2019-05-03T12:00:31.717Z,90.30
2019-05-03T12:03:07.340Z,89.70
2019-05-03T12:05:37.022Z,90.20
2019-05-03T12:08:06.749Z,90.50
2019-05-03T12:10:52.883Z,90.00
2019-05-03T12:13:15.587Z,90.10
2019-05-03T12:15:44.698Z,91.00
2019-05-03T12:18:16.275Z,91.50
2019-05-03T12:20:47.560Z,91.10
2019-05-03T12:23:18.251Z,91.80
2019-05-03T12:25:49.393Z,92.30
2019-05-03T12:28:19.461Z,93.00
2019-05-03T12:30:49.305Z,93.90
2019-05-03T12:33:19.084Z,94.30
2019-05-03T12:35:48.935Z,94.80
2019-05-03T12:38:18.667Z,95.00
2019-05-03T12:40:48.456Z,95.20
2019-05-03T12:43:18.227Z,95.50
2019-05-03T12:45:47.875Z,95.40
2019-05-03T12:48:17.645Z,95.50
2019-05-03T12:50:48.345Z,95.80
2019-05-03T12:53:18.219Z,96.20
2019-05-03T12:55:47.897Z,96.30
2019-05-03T12:58:17.938Z,96.60
2019-05-03T13:01:05.249Z,97.00
2019-05-03T13:03:41.542Z,97.00
2019-05-03T13:06:11.245Z,97.10
2019-05-03T13:08:45.657Z,96.70
2019-05-03T13:11:15.039Z,97.10
2019-05-03T13:13:45.312Z,96.60
2019-05-03T13:16:18.326Z,97.10
2019-05-03T13:18:47.996Z,97.30
2019-05-03T13:21:17.680Z,97.40
2019-05-03T13:23:47.397Z,97.50
2019-05-03T13:26:17.087Z,97.20
2019-05-03T13:28:46.864Z,97.10
2019-05-03T13:31:16.470Z,96.30
2019-05-03T13:33:46.187Z,96.00
2019-05-03T13:36:15.955Z,95.50
2019-05-03T13:38:45.675Z,95.40
2019-05-03T13:41:15.392Z,94.70
2019-05-03T13:43:45.443Z,95.10
2019-05-03T13:46:15.754Z,94.50
2019-05-03T13:48:48.942Z,93.70
2019-05-03T13:51:16.947Z,93.10
2019-05-03T13:53:46.795Z,93.10
2019-05-03T13:56:16.825Z,93.20
2019-05-03T13:58:46.504Z,93.20
2019-05-03T14:01:16.474Z,93.40
2019-05-03T14:03:46.054Z,93.10
2019-05-03T14:06:15.756Z,92.70
2019-05-03T14:08:45.599Z,93.10
2019-05-03T14:11:15.625Z,93.00
2019-05-03T14:13:45.304Z,92.70
2019-05-03T14:16:15.013Z,93.40
2019-05-03T14:18:47.216Z,93.30
2019-05-03T14:21:31.703Z,93.20
2019-05-03T14:24:10.725Z,93.10
2019-05-03T14:26:41.427Z,93.50
2019-05-03T14:29:11.317Z,93.70
2019-05-03T14:31:40.988Z,94.00
2019-05-03T14:34:10.813Z,93.80
2019-05-03T14:36:40.447Z,93.30
2019-05-03T14:39:10.668Z,93.70
2019-05-03T14:41:40.371Z,93.50
2019-05-03T14:44:10.050Z,93.30
2019-05-03T14:46:40.134Z,93.00
2019-05-03T14:49:09.994Z,92.50
2019-05-03T14:51:39.780Z,92.90
2019-05-03T14:54:10.047Z,92.90
2019-05-03T14:56:48.134Z,93.10
2019-05-03T14:59:39.786Z,92.60
2019-05-03T15:02:15.585Z,92.40
2019-05-03T15:04:46.363Z,92.80
2019-05-03T15:07:16.693Z,92.40
2019-05-03T15:09:46.288Z,92.20
2019-05-03T15:12:16.022Z,92.50
2019-05-03T15:14:47.052Z,92.60
2019-05-03T15:17:16.774Z,91.80
2019-05-03T15:19:46.415Z,92.20
2019-05-03T15:22:16.176Z,92.10
2019-05-03T15:24:45.772Z,92.50
2019-05-03T15:27:15.501Z,93.20
2019-05-03T15:29:45.115Z,93.00
2019-05-03T15:32:19.292Z,92.80
2019-05-03T15:34:49.520Z,92.50
2019-05-03T15:37:19.453Z,92.30
2019-05-03T15:39:49.088Z,92.40
2019-05-03T15:42:20.103Z,92.50
2019-05-03T15:45:08.345Z,92.60
2019-05-03T15:47:46.127Z,92.90
2019-05-03T15:50:15.891Z,92.80
2019-05-03T15:52:45.443Z,92.60
2019-05-03T15:55:15.297Z,92.50
2019-05-03T15:57:45.305Z,92.70
2019-05-03T16:00:16.775Z,92.20
2019-05-03T16:02:46.452Z,92.20
2019-05-03T16:05:16.074Z,92.40
2019-05-03T16:07:45.942Z,92.30
2019-05-03T16:10:15.931Z,92.50
2019-05-03T16:12:45.645Z,92.30
2019-05-03T16:15:15.616Z,92.20
2019-05-03T16:17:45.808Z,92.20
2019-05-03T16:20:16.133Z,92.20
2019-05-03T16:22:46.652Z,92.20
2019-05-03T16:25:16.616Z,92.10
2019-05-03T16:28:05.301Z,92.10
2019-05-03T16:30:45.411Z,92.20
2019-05-03T16:33:26.232Z,92.50
2019-05-03T16:35:47.370Z,92.40
2019-05-03T16:38:17.071Z,92.30
2019-05-03T16:40:46.746Z,92.40
2019-05-03T16:43:16.427Z,92.40
2019-05-03T16:45:46.064Z,92.50
2019-05-03T16:48:18.210Z,92.60
2019-05-03T16:50:46.999Z,92.40
2019-05-03T16:53:16.866Z,92.80
2019-05-03T16:55:46.545Z,92.60
2019-05-03T16:58:17.057Z,92.60
2019-05-03T17:00:46.922Z,92.30
2019-05-03T17:03:19.309Z,92.30
2019-05-03T17:06:00.201Z,92.40
2019-05-03T17:08:35.342Z,92.50
2019-05-03T17:11:07.536Z,92.50
2019-05-03T17:13:37.112Z,92.50
2019-05-03T17:16:07.540Z,92.30
2019-05-03T17:18:37.448Z,92.50
2019-05-03T17:21:07.539Z,92.40
2019-05-03T17:23:37.292Z,92.70
2019-05-03T17:26:06.967Z,92.90
2019-05-03T17:28:36.912Z,92.70
2019-05-03T17:31:06.547Z,92.80
2019-05-03T17:33:36.130Z,92.80
2019-05-03T17:36:06.021Z,92.90
2019-05-03T17:38:36.699Z,92.90
2019-05-03T17:41:26.577Z,93.10
2019-05-03T17:44:15.107Z,93.30
2019-05-03T17:46:45.380Z,93.30
2019-05-03T17:49:15.131Z,93.40
2019-05-03T17:52:09.601Z,93.50
2019-05-03T17:55:01.264Z,93.60
2019-05-03T17:57:48.668Z,93.80
2019-05-03T18:00:49.281Z,93.90
2019-05-03T18:03:20.215Z,94.00
2019-05-03T18:06:01.294Z,94.10
2019-05-03T18:08:44.603Z,94.10
2019-05-03T18:11:17.435Z,94.20
2019-05-03T18:13:47.054Z,94.20
2019-05-03T18:16:17.126Z,94.30
2019-05-03T18:18:47.015Z,94.30
2019-05-03T18:21:16.683Z,94.50
2019-05-03T18:23:50.288Z,94.50
2019-05-03T18:26:19.952Z,94.60
2019-05-03T18:28:49.694Z,94.50
2019-05-03T18:31:19.315Z,95.00
2019-05-03T18:33:49.067Z,94.70
2019-05-03T18:36:18.693Z,94.60
2019-05-03T18:38:48.641Z,94.60
2019-05-03T18:41:18.268Z,94.80
2019-05-03T18:43:59.263Z,94.70
2019-05-03T18:46:31.914Z,94.80
2019-05-03T18:49:01.709Z,94.70
2019-05-03T18:51:31.742Z,94.70
2019-05-03T18:54:01.341Z,94.60
2019-05-03T18:56:31.151Z,94.80
2019-05-03T18:59:01.370Z,94.90
2019-05-03T19:01:31.187Z,95.10
2019-05-03T19:04:08.648Z,94.90
2019-05-03T19:06:38.459Z,95.10
2019-05-03T19:09:31.444Z,95.10
2019-05-03T19:12:11.910Z,95.20
2019-05-03T19:14:41.555Z,95.20
2019-05-03T19:17:36.316Z,95.10
2019-05-03T19:20:09.343Z,95.10
2019-05-03T19:22:39.019Z,95.40
2019-05-03T19:25:10.247Z,95.40
2019-05-03T19:27:39.979Z,95.10
2019-05-03T19:30:10.336Z,95.10
2019-05-03T19:32:39.932Z,95.10
2019-05-03T19:35:09.891Z,95.00
2019-05-03T19:37:39.717Z,95.10
2019-05-03T19:40:09.623Z,95.10
2019-05-03T19:42:39.336Z,95.20
2019-05-03T19:45:09.340Z,95.00
2019-05-03T19:47:39.014Z,95.00
2019-05-03T19:50:09.240Z,95.00
2019-05-03T19:52:59.890Z,95.10
2019-05-03T19:55:29.525Z,95.20
2019-05-03T19:57:59.273Z,95.20
2019-05-03T20:00:37.874Z,95.10
2019-05-03T20:03:15.342Z,94.80
2019-05-03T20:05:59.070Z,94.90
2019-05-03T20:08:38.254Z,94.70
2019-05-03T20:11:17.572Z,94.40
2019-05-03T20:13:47.596Z,94.40
2019-05-03T20:16:17.191Z,94.20
2019-05-03T20:18:46.808Z,94.30
2019-05-03T20:21:16.423Z,94.00
2019-05-03T20:23:47.132Z,94.20
2019-05-03T20:26:16.934Z,94.20
2019-05-03T20:28:46.536Z,94.20
2019-05-03T20:31:16.377Z,94.10
2019-05-03T20:33:46.045Z,94.30
2019-05-03T20:36:15.826Z,94.10
2019-05-03T20:38:45.946Z,94.20
2019-05-03T20:41:15.636Z,94.10
2019-05-03T20:44:07.015Z,94.30
2019-05-03T20:47:04.591Z,94.30
2019-05-03T20:49:35.573Z,94.30
2019-05-03T20:52:05.422Z,94.20
2019-05-03T20:54:35.130Z,94.20
2019-05-03T20:57:05.385Z,94.50
2019-05-03T20:59:42.962Z,94.00
2019-05-03T21:02:06.591Z,94.20
2019-05-03T21:04:36.273Z,94.10
2019-05-03T21:07:06.002Z,94.20
2019-05-03T21:09:35.621Z,94.10
2019-05-03T21:12:05.352Z,94.10
2019-05-03T21:14:35.168Z,94.20
2019-05-03T21:20:01.747Z,94.20
2019-05-03T21:22:35.932Z,94.20
2019-05-03T21:25:24.885Z,94.40
2019-05-03T21:27:55.535Z,94.40
2019-05-03T21:30:25.400Z,94.50
2019-05-03T21:32:55.066Z,94.40
2019-05-03T21:35:38.682Z,94.50
2019-05-03T21:37:56.591Z,95.10
2019-05-03T21:40:26.404Z,95.00
2019-05-03T21:42:56.046Z,95.00
2019-05-03T21:45:31.175Z,95.20
2019-05-03T21:48:24.841Z,95.00
2019-05-03T21:50:54.245Z,95.00
2019-05-03T21:53:25.091Z,95.30
2019-05-03T21:55:54.913Z,95.50
2019-05-03T21:58:25.047Z,95.80
2019-05-03T22:01:05.173Z,95.80
2019-05-03T22:03:35.495Z,95.70
2019-05-03T22:06:05.281Z,95.30
2019-05-03T22:08:35.177Z,95.50
2019-05-03T22:13:40.529Z,95.50
2019-05-03T22:16:36.108Z,95.70
2019-05-03T22:19:05.819Z,95.40
2019-05-03T22:21:51.413Z,95.40
2019-05-03T22:24:32.064Z,95.50
2019-05-03T22:27:04.887Z,95.50
2019-05-03T22:29:35.857Z,95.60
2019-05-03T22:32:05.515Z,95.70
2019-05-03T22:34:35.218Z,95.60
2019-05-03T22:37:04.854Z,95.60
2019-05-03T22:39:34.563Z,95.70
2019-05-03T22:42:04.629Z,95.80
2019-05-03T22:44:35.616Z,95.80
2019-05-03T22:47:05.657Z,95.50
2019-05-03T22:49:37.270Z,95.60
2019-05-03T22:52:06.800Z,95.80
2019-05-03T22:54:36.560Z,95.70
2019-05-03T22:57:06.249Z,95.80
2019-05-03T22:59:35.963Z,96.00
2019-05-03T23:02:05.691Z,96.10
2019-05-03T23:04:35.725Z,95.80
2019-05-03T23:07:05.716Z,96.20
2019-05-03T23:09:35.347Z,96.40
2019-05-03T23:12:05.510Z,96.10
2019-05-03T23:14:35.155Z,96.10
2019-05-03T23:17:05.589Z,96.00
2019-05-03T23:19:36.833Z,96.10
2019-05-03T23:22:17.766Z,96.30
2019-05-03T23:24:47.378Z,96.30
2019-05-03T23:27:17.087Z,96.30
2019-05-03T23:29:46.647Z,96.50
2019-05-03T23:32:16.360Z,96.60
2019-05-03T23:34:46.497Z,96.60
2019-05-03T23:37:16.148Z,96.60
2019-05-03T23:39:45.728Z,96.70
2019-05-03T23:42:15.617Z,96.70
2019-05-03T23:44:45.762Z,96.70
2019-05-03T23:47:34.470Z,96.80
2019-05-03T23:50:05.561Z,96.60
2019-05-03T23:52:37.510Z,96.60
2019-05-03T23:55:16.495Z,96.50
2019-05-03T23:57:46.168Z,96.50
